sensor_id;sensor_type;location;lat;lon;timestamp;P1;durP1;ratioP1;P2;durP2;ratioP2
14040;SDS011;7095;51.388;6.196;2022-08-04T00:03:32;7.90;;;3.40;;
14040;SDS011;7095;51.388;6.196;2022-08-04T00:06:13;9.57;;;2.97;;
14040;SDS011;7095;51.388;6.196;2022-08-04T00:08:51;7.93;;;2.80;;
14040;SDS011;7095;51.388;6.196;2022-08-04T00:11:25;11.90;;;3.20;;
14040;SDS011;7095;51.388;6.196;2022-08-04T00:13:57;8.23;;;3.33;;
14040;SDS011;7095;51.388;6.196;2022-08-04T00:16:32;5.63;;;3.13;;
14040;SDS011;7095;51.388;6.196;2022-08-04T00:19:06;10.77;;;3.40;;
14040;SDS011;7095;51.388;6.196;2022-08-04T00:21:59;7.33;;;2.90;;
14040;SDS011;7095;51.388;6.196;2022-08-04T00:24:31;11.47;;;3.57;;
14040;SDS011;7095;51.388;6.196;2022-08-04T00:27:03;4.63;;;2.80;;
14040;SDS011;7095;51.388;6.196;2022-08-04T00:29:34;8.50;;;2.87;;
14040;SDS011;7095;51.388;6.196;2022-08-04T00:32:08;7.77;;;2.70;;
14040;SDS011;7095;51.388;6.196;2022-08-04T00:34:38;11.50;;;3.20;;
14040;SDS011;7095;51.388;6.196;2022-08-04T00:37:09;10.37;;;3.40;;
14040;SDS011;7095;51.388;6.196;2022-08-04T00:39:38;8.50;;;2.60;;
14040;SDS011;7095;51.388;6.196;2022-08-04T00:45:51;8.50;;;2.93;;
14040;SDS011;7095;51.388;6.196;2022-08-04T00:48:51;13.67;;;3.07;;
14040;SDS011;7095;51.388;6.196;2022-08-04T00:51:32;6.73;;;2.50;;
14040;SDS011;7095;51.388;6.196;2022-08-04T00:54:17;6.70;;;2.70;;
14040;SDS011;7095;51.388;6.196;2022-08-04T00:57:09;8.17;;;2.53;;
14040;SDS011;7095;51.388;6.196;2022-08-04T01:00:06;10.07;;;3.00;;
14040;SDS011;7095;51.388;6.196;2022-08-04T01:02:38;9.47;;;2.30;;
14040;SDS011;7095;51.388;6.196;2022-08-04T01:05:19;6.03;;;2.87;;
14040;SDS011;7095;51.388;6.196;2022-08-04T01:08:04;9.90;;;3.07;;
14040;SDS011;7095;51.388;6.196;2022-08-04T01:11:02;12.87;;;3.00;;
14040;SDS011;7095;51.388;6.196;2022-08-04T01:13:59;8.97;;;3.10;;
14040;SDS011;7095;51.388;6.196;2022-08-04T01:16:45;10.13;;;3.57;;
14040;SDS011;7095;51.388;6.196;2022-08-04T01:19:24;6.07;;;3.10;;
14040;SDS011;7095;51.388;6.196;2022-08-04T01:25:32;10.33;;;3.40;;
14040;SDS011;7095;51.388;6.196;2022-08-04T01:28:33;8.17;;;2.70;;
14040;SDS011;7095;51.388;6.196;2022-08-04T01:31:18;13.17;;;2.93;;
14040;SDS011;7095;51.388;6.196;2022-08-04T01:33:53;8.07;;;3.10;;
14040;SDS011;7095;51.388;6.196;2022-08-04T01:36:30;11.57;;;3.47;;
14040;SDS011;7095;51.388;6.196;2022-08-04T01:39:03;7.03;;;2.87;;
14040;SDS011;7095;51.388;6.196;2022-08-04T01:41:54;7.50;;;3.10;;
14040;SDS011;7095;51.388;6.196;2022-08-04T01:44:25;9.93;;;3.70;;
14040;SDS011;7095;51.388;6.196;2022-08-04T01:46:56;9.47;;;3.27;;
14040;SDS011;7095;51.388;6.196;2022-08-04T01:49:29;9.40;;;3.60;;
14040;SDS011;7095;51.388;6.196;2022-08-04T01:52:07;16.77;;;3.90;;
14040;SDS011;7095;51.388;6.196;2022-08-04T01:54:37;8.53;;;3.43;;
14040;SDS011;7095;51.388;6.196;2022-08-04T01:57:09;12.40;;;4.87;;
14040;SDS011;7095;51.388;6.196;2022-08-04T01:59:59;10.77;;;4.03;;
14040;SDS011;7095;51.388;6.196;2022-08-04T02:02:31;12.30;;;3.87;;
14040;SDS011;7095;51.388;6.196;2022-08-04T02:05:00;6.57;;;3.63;;
14040;SDS011;7095;51.388;6.196;2022-08-04T02:07:31;9.63;;;3.83;;
14040;SDS011;7095;51.388;6.196;2022-08-04T02:10:17;9.47;;;3.90;;
14040;SDS011;7095;51.388;6.196;2022-08-04T02:12:56;10.57;;;4.40;;
14040;SDS011;7095;51.388;6.196;2022-08-04T02:15:41;15.43;;;4.13;;
14040;SDS011;7095;51.388;6.196;2022-08-04T02:18:22;10.23;;;4.07;;
14040;SDS011;7095;51.388;6.196;2022-08-04T02:20:54;14.43;;;4.43;;
14040;SDS011;7095;51.388;6.196;2022-08-04T02:23:28;13.67;;;4.10;;
14040;SDS011;7095;51.388;6.196;2022-08-04T02:25:59;13.20;;;4.33;;
14040;SDS011;7095;51.388;6.196;2022-08-04T02:28:34;12.30;;;4.33;;
14040;SDS011;7095;51.388;6.196;2022-08-04T02:31:18;17.00;;;4.40;;
14040;SDS011;7095;51.388;6.196;2022-08-04T02:34:00;12.63;;;3.97;;
14040;SDS011;7095;51.388;6.196;2022-08-04T02:36:35;15.30;;;3.70;;
14040;SDS011;7095;51.388;6.196;2022-08-04T02:39:05;9.80;;;3.80;;
14040;SDS011;7095;51.388;6.196;2022-08-04T02:41:35;14.33;;;3.40;;
14040;SDS011;7095;51.388;6.196;2022-08-04T02:44:07;10.50;;;3.30;;
14040;SDS011;7095;51.388;6.196;2022-08-04T02:46:37;12.93;;;3.60;;
14040;SDS011;7095;51.388;6.196;2022-08-04T02:49:10;13.73;;;3.07;;
14040;SDS011;7095;51.388;6.196;2022-08-04T02:51:39;12.93;;;3.23;;
14040;SDS011;7095;51.388;6.196;2022-08-04T02:54:09;10.43;;;3.57;;
14040;SDS011;7095;51.388;6.196;2022-08-04T02:56:38;13.20;;;3.03;;
14040;SDS011;7095;51.388;6.196;2022-08-04T02:59:15;11.50;;;3.20;;
14040;SDS011;7095;51.388;6.196;2022-08-04T03:01:48;6.77;;;3.50;;
14040;SDS011;7095;51.388;6.196;2022-08-04T03:04:44;15.27;;;3.60;;
14040;SDS011;7095;51.388;6.196;2022-08-04T03:07:22;13.67;;;3.07;;
14040;SDS011;7095;51.388;6.196;2022-08-04T03:10:13;10.10;;;3.10;;
14040;SDS011;7095;51.388;6.196;2022-08-04T03:22:19;7.73;;;2.80;;
14040;SDS011;7095;51.388;6.196;2022-08-04T03:25:37;9.80;;;3.20;;
14040;SDS011;7095;51.388;6.196;2022-08-04T03:28:34;6.83;;;3.00;;
14040;SDS011;7095;51.388;6.196;2022-08-04T03:31:41;10.53;;;3.17;;
14040;SDS011;7095;51.388;6.196;2022-08-04T03:34:32;12.53;;;3.27;;
14040;SDS011;7095;51.388;6.196;2022-08-04T03:37:18;8.33;;;3.30;;
14040;SDS011;7095;51.388;6.196;2022-08-04T03:43:33;8.57;;;3.50;;
14040;SDS011;7095;51.388;6.196;2022-08-04T03:46:40;11.87;;;3.60;;
14040;SDS011;7095;51.388;6.196;2022-08-04T03:49:29;10.90;;;3.30;;
14040;SDS011;7095;51.388;6.196;2022-08-04T03:52:42;11.47;;;3.33;;
14040;SDS011;7095;51.388;6.196;2022-08-04T03:59:17;12.43;;;4.10;;
14040;SDS011;7095;51.388;6.196;2022-08-04T04:02:32;8.70;;;3.67;;
14040;SDS011;7095;51.388;6.196;2022-08-04T04:05:19;12.30;;;4.67;;
14040;SDS011;7095;51.388;6.196;2022-08-04T04:08:33;10.23;;;3.47;;
14040;SDS011;7095;51.388;6.196;2022-08-04T04:11:29;9.97;;;3.97;;
14040;SDS011;7095;51.388;6.196;2022-08-04T04:14:35;10.00;;;3.43;;
14040;SDS011;7095;51.388;6.196;2022-08-04T04:17:43;8.27;;;3.73;;
14040;SDS011;7095;51.388;6.196;2022-08-04T04:20:24;12.20;;;4.27;;
14040;SDS011;7095;51.388;6.196;2022-08-04T04:23:10;8.27;;;4.10;;
14040;SDS011;7095;51.388;6.196;2022-08-04T04:26:05;11.40;;;4.33;;
14040;SDS011;7095;51.388;6.196;2022-08-04T04:28:57;12.17;;;3.97;;
14040;SDS011;7095;51.388;6.196;2022-08-04T04:31:44;11.50;;;3.90;;
14040;SDS011;7095;51.388;6.196;2022-08-04T04:34:34;15.83;;;4.40;;
14040;SDS011;7095;51.388;6.196;2022-08-04T04:37:16;15.07;;;3.67;;
14040;SDS011;7095;51.388;6.196;2022-08-04T04:39:56;8.10;;;4.03;;
14040;SDS011;7095;51.388;6.196;2022-08-04T04:42:43;6.40;;;3.60;;
14040;SDS011;7095;51.388;6.196;2022-08-04T04:45:25;12.67;;;4.57;;
14040;SDS011;7095;51.388;6.196;2022-08-04T04:48:03;11.83;;;4.23;;
14040;SDS011;7095;51.388;6.196;2022-08-04T04:50:55;14.43;;;4.73;;
14040;SDS011;7095;51.388;6.196;2022-08-04T04:53:34;13.50;;;3.67;;
14040;SDS011;7095;51.388;6.196;2022-08-04T04:56:14;10.17;;;4.10;;
14040;SDS011;7095;51.388;6.196;2022-08-04T04:58:51;8.27;;;4.07;;
14040;SDS011;7095;51.388;6.196;2022-08-04T05:01:26;11.37;;;3.80;;
14040;SDS011;7095;51.388;6.196;2022-08-04T05:10:30;9.20;;;3.83;;
14040;SDS011;7095;51.388;6.196;2022-08-04T05:13:18;13.87;;;4.50;;
14040;SDS011;7095;51.388;6.196;2022-08-04T05:16:23;10.67;;;3.53;;
14040;SDS011;7095;51.388;6.196;2022-08-04T05:18:56;13.30;;;4.03;;
14040;SDS011;7095;51.388;6.196;2022-08-04T05:21:36;13.07;;;3.87;;
14040;SDS011;7095;51.388;6.196;2022-08-04T05:24:11;15.03;;;3.53;;
14040;SDS011;7095;51.388;6.196;2022-08-04T05:26:43;14.47;;;3.77;;
14040;SDS011;7095;51.388;6.196;2022-08-04T05:29:25;11.17;;;3.90;;
14040;SDS011;7095;51.388;6.196;2022-08-04T05:32:00;8.37;;;3.57;;
14040;SDS011;7095;51.388;6.196;2022-08-04T05:34:36;15.00;;;3.40;;
14040;SDS011;7095;51.388;6.196;2022-08-04T05:37:08;11.47;;;4.10;;
14040;SDS011;7095;51.388;6.196;2022-08-04T05:39:43;15.53;;;4.00;;
14040;SDS011;7095;51.388;6.196;2022-08-04T05:42:15;14.13;;;3.47;;
14040;SDS011;7095;51.388;6.196;2022-08-04T05:44:46;10.73;;;4.03;;
14040;SDS011;7095;51.388;6.196;2022-08-04T05:47:18;10.77;;;3.20;;
14040;SDS011;7095;51.388;6.196;2022-08-04T05:49:48;7.03;;;3.23;;
14040;SDS011;7095;51.388;6.196;2022-08-04T05:52:28;12.23;;;2.87;;
14040;SDS011;7095;51.388;6.196;2022-08-04T05:54:57;11.20;;;3.43;;
14040;SDS011;7095;51.388;6.196;2022-08-04T05:57:27;8.10;;;3.00;;
14040;SDS011;7095;51.388;6.196;2022-08-04T05:59:59;8.53;;;3.10;;
14040;SDS011;7095;51.388;6.196;2022-08-04T06:02:51;8.50;;;3.37;;
14040;SDS011;7095;51.388;6.196;2022-08-04T06:05:21;7.47;;;3.13;;
14040;SDS011;7095;51.388;6.196;2022-08-04T06:07:51;7.20;;;3.20;;
14040;SDS011;7095;51.388;6.196;2022-08-04T06:10:39;8.20;;;3.17;;
14040;SDS011;7095;51.388;6.196;2022-08-04T06:13:10;10.50;;;3.53;;
14040;SDS011;7095;51.388;6.196;2022-08-04T06:16:01;6.77;;;3.13;;
14040;SDS011;7095;51.388;6.196;2022-08-04T06:18:45;7.17;;;2.67;;
14040;SDS011;7095;51.388;6.196;2022-08-04T06:21:40;7.43;;;3.30;;
14040;SDS011;7095;51.388;6.196;2022-08-04T06:24:12;10.80;;;3.10;;
14040;SDS011;7095;51.388;6.196;2022-08-04T06:26:45;10.73;;;3.33;;
14040;SDS011;7095;51.388;6.196;2022-08-04T06:29:16;9.50;;;2.80;;
14040;SDS011;7095;51.388;6.196;2022-08-04T06:31:51;14.20;;;3.37;;
14040;SDS011;7095;51.388;6.196;2022-08-04T06:34:47;10.70;;;3.67;;
14040;SDS011;7095;51.388;6.196;2022-08-04T06:37:19;13.80;;;3.07;;
14040;SDS011;7095;51.388;6.196;2022-08-04T06:40:10;15.37;;;3.53;;
14040;SDS011;7095;51.388;6.196;2022-08-04T06:42:58;9.57;;;3.00;;
14040;SDS011;7095;51.388;6.196;2022-08-04T06:45:29;16.33;;;3.93;;
14040;SDS011;7095;51.388;6.196;2022-08-04T06:48:00;11.17;;;3.53;;
14040;SDS011;7095;51.388;6.196;2022-08-04T06:50:32;8.57;;;3.13;;
14040;SDS011;7095;51.388;6.196;2022-08-04T06:53:22;11.80;;;3.27;;
14040;SDS011;7095;51.388;6.196;2022-08-04T06:55:52;13.40;;;3.60;;
14040;SDS011;7095;51.388;6.196;2022-08-04T06:58:22;14.23;;;3.50;;
14040;SDS011;7095;51.388;6.196;2022-08-04T07:00:53;15.13;;;3.40;;
14040;SDS011;7095;51.388;6.196;2022-08-04T07:03:28;11.50;;;3.50;;
14040;SDS011;7095;51.388;6.196;2022-08-04T07:05:59;11.20;;;3.40;;
14040;SDS011;7095;51.388;6.196;2022-08-04T07:08:40;14.57;;;4.20;;
14040;SDS011;7095;51.388;6.196;2022-08-04T07:11:09;11.40;;;3.60;;
14040;SDS011;7095;51.388;6.196;2022-08-04T07:13:40;14.03;;;3.80;;
14040;SDS011;7095;51.388;6.196;2022-08-04T07:16:12;10.17;;;3.00;;
14040;SDS011;7095;51.388;6.196;2022-08-04T07:18:42;6.30;;;3.22;;
14040;SDS011;7095;51.388;6.196;2022-08-04T07:21:17;11.13;;;3.40;;
14040;SDS011;7095;51.388;6.196;2022-08-04T07:23:48;10.43;;;3.47;;
14040;SDS011;7095;51.388;6.196;2022-08-04T07:26:17;10.00;;;3.20;;
14040;SDS011;7095;51.388;6.196;2022-08-04T07:28:46;17.70;;;3.70;;
14040;SDS011;7095;51.388;6.196;2022-08-04T07:31:15;6.23;;;3.10;;
14040;SDS011;7095;51.388;6.196;2022-08-04T07:34:01;14.38;;;4.38;;
14040;SDS011;7095;51.388;6.196;2022-08-04T07:36:49;8.07;;;3.08;;
14040;SDS011;7095;51.388;6.196;2022-08-04T07:39:22;13.63;;;3.40;;
14040;SDS011;7095;51.388;6.196;2022-08-04T07:41:55;14.73;;;3.43;;
14040;SDS011;7095;51.388;6.196;2022-08-04T07:44:28;9.10;;;3.53;;
14040;SDS011;7095;51.388;6.196;2022-08-04T07:46:58;7.50;;;3.00;;
14040;SDS011;7095;51.388;6.196;2022-08-04T07:49:27;9.85;;;3.30;;
14040;SDS011;7095;51.388;6.196;2022-08-04T07:52:19;12.43;;;3.40;;
14040;SDS011;7095;51.388;6.196;2022-08-04T07:54:48;11.65;;;3.15;;
14040;SDS011;7095;51.388;6.196;2022-08-04T07:57:18;9.02;;;2.60;;
14040;SDS011;7095;51.388;6.196;2022-08-04T08:00:08;7.90;;;3.10;;
14040;SDS011;7095;51.388;6.196;2022-08-04T08:02:37;9.30;;;2.90;;
14040;SDS011;7095;51.388;6.196;2022-08-04T08:05:10;7.03;;;2.90;;
14040;SDS011;7095;51.388;6.196;2022-08-04T08:07:45;13.55;;;2.75;;
14040;SDS011;7095;51.388;6.196;2022-08-04T08:10:20;11.18;;;3.20;;
14040;SDS011;7095;51.388;6.196;2022-08-04T08:12:50;8.13;;;2.85;;
14040;SDS011;7095;51.388;6.196;2022-08-04T08:15:20;12.13;;;3.30;;
14040;SDS011;7095;51.388;6.196;2022-08-04T08:17:49;11.70;;;3.05;;
14040;SDS011;7095;51.388;6.196;2022-08-04T08:20:29;6.70;;;2.97;;
14040;SDS011;7095;51.388;6.196;2022-08-04T08:23:01;6.68;;;2.63;;
14040;SDS011;7095;51.388;6.196;2022-08-04T08:25:31;10.00;;;3.15;;
14040;SDS011;7095;51.388;6.196;2022-08-04T08:28:01;11.68;;;3.50;;
14040;SDS011;7095;51.388;6.196;2022-08-04T08:30:31;14.30;;;4.00;;
14040;SDS011;7095;51.388;6.196;2022-08-04T08:33:01;14.48;;;3.60;;
14040;SDS011;7095;51.388;6.196;2022-08-04T08:35:40;7.32;;;3.38;;
14040;SDS011;7095;51.388;6.196;2022-08-04T08:38:29;9.90;;;3.03;;
14040;SDS011;7095;51.388;6.196;2022-08-04T08:44:29;11.48;;;3.60;;
14040;SDS011;7095;51.388;6.196;2022-08-04T08:47:32;12.02;;;3.70;;
14040;SDS011;7095;51.388;6.196;2022-08-04T08:50:36;8.45;;;3.30;;
14040;SDS011;7095;51.388;6.196;2022-08-04T08:53:22;11.43;;;3.53;;
14040;SDS011;7095;51.388;6.196;2022-08-04T08:56:03;12.60;;;3.83;;
14040;SDS011;7095;51.388;6.196;2022-08-04T08:59:12;8.70;;;3.15;;
14040;SDS011;7095;51.388;6.196;2022-08-04T09:01:59;11.30;;;3.03;;
14040;SDS011;7095;51.388;6.196;2022-08-04T09:04:55;12.85;;;3.10;;
14040;SDS011;7095;51.388;6.196;2022-08-04T09:07:45;10.80;;;2.95;;
14040;SDS011;7095;51.388;6.196;2022-08-04T09:10:32;10.02;;;3.20;;
14040;SDS011;7095;51.388;6.196;2022-08-04T09:13:12;10.98;;;2.60;;
14040;SDS011;7095;51.388;6.196;2022-08-04T09:15:48;10.52;;;2.90;;
14040;SDS011;7095;51.388;6.196;2022-08-04T09:18:25;5.30;;;2.50;;
14040;SDS011;7095;51.388;6.196;2022-08-04T09:21:01;8.10;;;2.92;;
14040;SDS011;7095;51.388;6.196;2022-08-04T09:23:40;7.70;;;2.78;;
14040;SDS011;7095;51.388;6.196;2022-08-04T09:26:21;7.68;;;2.58;;
14040;SDS011;7095;51.388;6.196;2022-08-04T09:28:59;8.18;;;2.47;;
14040;SDS011;7095;51.388;6.196;2022-08-04T09:31:56;7.28;;;2.75;;
14040;SDS011;7095;51.388;6.196;2022-08-04T09:34:36;10.95;;;3.50;;
14040;SDS011;7095;51.388;6.196;2022-08-04T09:37:14;12.60;;;3.13;;
14040;SDS011;7095;51.388;6.196;2022-08-04T09:39:49;12.68;;;3.25;;
14040;SDS011;7095;51.388;6.196;2022-08-04T09:42:36;11.70;;;3.60;;
14040;SDS011;7095;51.388;6.196;2022-08-04T09:45:17;24.52;;;3.38;;
14040;SDS011;7095;51.388;6.196;2022-08-04T09:47:56;14.15;;;2.90;;
14040;SDS011;7095;51.388;6.196;2022-08-04T09:50:33;10.05;;;3.20;;
14040;SDS011;7095;51.388;6.196;2022-08-04T09:53:26;16.05;;;3.42;;
14040;SDS011;7095;51.388;6.196;2022-08-04T09:56:06;12.32;;;3.20;;
14040;SDS011;7095;51.388;6.196;2022-08-04T09:58:43;7.72;;;3.17;;
14040;SDS011;7095;51.388;6.196;2022-08-04T10:01:18;11.75;;;3.25;;
14040;SDS011;7095;51.388;6.196;2022-08-04T10:03:50;6.55;;;2.40;;
14040;SDS011;7095;51.388;6.196;2022-08-04T10:09:33;8.02;;;2.60;;
14040;SDS011;7095;51.388;6.196;2022-08-04T10:12:29;5.97;;;2.80;;
14040;SDS011;7095;51.388;6.196;2022-08-04T10:15:08;12.02;;;2.83;;
14040;SDS011;7095;51.388;6.196;2022-08-04T10:17:41;18.15;;;2.97;;
14040;SDS011;7095;51.388;6.196;2022-08-04T10:20:23;8.82;;;3.08;;
14040;SDS011;7095;51.388;6.196;2022-08-04T10:23:16;6.68;;;2.33;;
14040;SDS011;7095;51.388;6.196;2022-08-04T10:25:54;10.90;;;2.45;;
14040;SDS011;7095;51.388;6.196;2022-08-04T10:28:36;13.45;;;3.55;;
14040;SDS011;7095;51.388;6.196;2022-08-04T10:31:12;6.82;;;2.72;;
14040;SDS011;7095;51.388;6.196;2022-08-04T10:33:48;6.70;;;2.60;;
14040;SDS011;7095;51.388;6.196;2022-08-04T10:36:22;9.77;;;2.42;;
14040;SDS011;7095;51.388;6.196;2022-08-04T10:38:55;5.85;;;2.25;;
14040;SDS011;7095;51.388;6.196;2022-08-04T10:41:31;7.93;;;2.40;;
14040;SDS011;7095;51.388;6.196;2022-08-04T10:44:11;9.60;;;2.85;;
14040;SDS011;7095;51.388;6.196;2022-08-04T10:46:46;4.88;;;2.53;;
14040;SDS011;7095;51.388;6.196;2022-08-04T10:49:23;9.23;;;2.78;;
14040;SDS011;7095;51.388;6.196;2022-08-04T10:52:02;11.02;;;3.33;;
14040;SDS011;7095;51.388;6.196;2022-08-04T10:54:37;10.80;;;3.50;;
14040;SDS011;7095;51.388;6.196;2022-08-04T10:57:15;7.45;;;3.08;;
14040;SDS011;7095;51.388;6.196;2022-08-04T10:59:50;10.52;;;3.40;;
14040;SDS011;7095;51.388;6.196;2022-08-04T11:02:35;11.77;;;3.78;;
14040;SDS011;7095;51.388;6.196;2022-08-04T11:05:14;11.18;;;3.45;;
14040;SDS011;7095;51.388;6.196;2022-08-04T11:07:49;10.82;;;3.97;;
14040;SDS011;7095;51.388;6.196;2022-08-04T11:10:21;11.85;;;3.80;;
14040;SDS011;7095;51.388;6.196;2022-08-04T11:12:54;16.55;;;4.40;;
14040;SDS011;7095;51.388;6.196;2022-08-04T11:15:29;13.32;;;4.82;;
14040;SDS011;7095;51.388;6.196;2022-08-04T11:18:06;9.93;;;4.00;;
14040;SDS011;7095;51.388;6.196;2022-08-04T11:20:44;13.45;;;5.53;;
14040;SDS011;7095;51.388;6.196;2022-08-04T11:23:20;14.55;;;5.75;;
14040;SDS011;7095;51.388;6.196;2022-08-04T11:25:55;14.20;;;6.13;;
14040;SDS011;7095;51.388;6.196;2022-08-04T11:28:32;10.50;;;5.18;;
14040;SDS011;7095;51.388;6.196;2022-08-04T11:31:11;14.77;;;5.07;;
14040;SDS011;7095;51.388;6.196;2022-08-04T11:33:49;9.60;;;4.53;;
14040;SDS011;7095;51.388;6.196;2022-08-04T11:36:25;9.48;;;4.68;;
14040;SDS011;7095;51.388;6.196;2022-08-04T11:39:02;10.55;;;5.38;;
14040;SDS011;7095;51.388;6.196;2022-08-04T11:41:39;9.48;;;4.28;;
14040;SDS011;7095;51.388;6.196;2022-08-04T11:44:17;9.88;;;4.78;;
14040;SDS011;7095;51.388;6.196;2022-08-04T11:46:52;9.95;;;4.22;;
14040;SDS011;7095;51.388;6.196;2022-08-04T11:49:28;8.73;;;4.03;;
14040;SDS011;7095;51.388;6.196;2022-08-04T11:52:22;12.23;;;4.97;;
14040;SDS011;7095;51.388;6.196;2022-08-04T11:54:53;11.45;;;4.53;;
14040;SDS011;7095;51.388;6.196;2022-08-04T11:57:24;6.80;;;4.18;;
14040;SDS011;7095;51.388;6.196;2022-08-04T12:00:03;8.52;;;4.10;;
14040;SDS011;7095;51.388;6.196;2022-08-04T12:02:41;8.13;;;3.85;;
14040;SDS011;7095;51.388;6.196;2022-08-04T12:05:30;11.40;;;4.05;;
14040;SDS011;7095;51.388;6.196;2022-08-04T12:08:10;8.05;;;3.67;;
14040;SDS011;7095;51.388;6.196;2022-08-04T12:11:04;9.48;;;3.70;;
14040;SDS011;7095;51.388;6.196;2022-08-04T12:13:44;13.93;;;3.72;;
14040;SDS011;7095;51.388;6.196;2022-08-04T12:16:19;8.77;;;3.50;;
14040;SDS011;7095;51.388;6.196;2022-08-04T12:18:56;8.43;;;3.72;;
14040;SDS011;7095;51.388;6.196;2022-08-04T12:21:32;9.80;;;3.92;;
14040;SDS011;7095;51.388;6.196;2022-08-04T12:24:19;9.27;;;3.60;;
14040;SDS011;7095;51.388;6.196;2022-08-04T12:26:51;6.65;;;3.45;;
14040;SDS011;7095;51.388;6.196;2022-08-04T12:29:23;8.30;;;3.63;;
14040;SDS011;7095;51.388;6.196;2022-08-04T12:31:59;7.78;;;3.53;;
14040;SDS011;7095;51.388;6.196;2022-08-04T12:34:37;9.50;;;3.95;;
14040;SDS011;7095;51.388;6.196;2022-08-04T12:37:11;8.63;;;3.72;;
14040;SDS011;7095;51.388;6.196;2022-08-04T12:39:48;8.95;;;3.33;;
14040;SDS011;7095;51.388;6.196;2022-08-04T12:42:41;7.45;;;3.50;;
14040;SDS011;7095;51.388;6.196;2022-08-04T12:45:31;7.35;;;2.53;;
14040;SDS011;7095;51.388;6.196;2022-08-04T12:48:01;5.35;;;2.90;;
14040;SDS011;7095;51.388;6.196;2022-08-04T12:50:33;5.07;;;2.53;;
14040;SDS011;7095;51.388;6.196;2022-08-04T12:53:09;10.48;;;3.08;;
14040;SDS011;7095;51.388;6.196;2022-08-04T12:55:57;10.30;;;3.10;;
14040;SDS011;7095;51.388;6.196;2022-08-04T12:58:29;8.40;;;2.88;;
14040;SDS011;7095;51.388;6.196;2022-08-04T13:01:10;11.63;;;2.80;;
14040;SDS011;7095;51.388;6.196;2022-08-04T13:04:02;13.57;;;3.70;;
14040;SDS011;7095;51.388;6.196;2022-08-04T13:06:38;6.60;;;2.55;;
14040;SDS011;7095;51.388;6.196;2022-08-04T13:09:17;9.20;;;3.22;;
14040;SDS011;7095;51.388;6.196;2022-08-04T13:11:52;8.20;;;2.60;;
14040;SDS011;7095;51.388;6.196;2022-08-04T13:14:30;9.32;;;3.05;;
14040;SDS011;7095;51.388;6.196;2022-08-04T13:17:05;7.30;;;2.90;;
14040;SDS011;7095;51.388;6.196;2022-08-04T13:19:34;9.70;;;3.08;;
14040;SDS011;7095;51.388;6.196;2022-08-04T13:22:08;7.95;;;3.00;;
14040;SDS011;7095;51.388;6.196;2022-08-04T13:24:39;4.82;;;2.70;;
14040;SDS011;7095;51.388;6.196;2022-08-04T13:27:29;10.75;;;3.15;;
14040;SDS011;7095;51.388;6.196;2022-08-04T13:30:10;10.90;;;3.05;;
14040;SDS011;7095;51.388;6.196;2022-08-04T13:32:51;10.82;;;2.72;;
14040;SDS011;7095;51.388;6.196;2022-08-04T13:35:22;7.93;;;3.20;;
14040;SDS011;7095;51.388;6.196;2022-08-04T13:38:14;9.77;;;3.10;;
14040;SDS011;7095;51.388;6.196;2022-08-04T13:40:46;6.32;;;3.78;;
14040;SDS011;7095;51.388;6.196;2022-08-04T13:43:21;6.28;;;2.80;;
14040;SDS011;7095;51.388;6.196;2022-08-04T13:46:15;7.78;;;2.80;;
14040;SDS011;7095;51.388;6.196;2022-08-04T13:48:54;11.45;;;3.40;;
14040;SDS011;7095;51.388;6.196;2022-08-04T13:51:50;7.47;;;2.92;;
14040;SDS011;7095;51.388;6.196;2022-08-04T13:54:25;8.77;;;3.10;;
14040;SDS011;7095;51.388;6.196;2022-08-04T13:56:58;9.07;;;3.65;;
14040;SDS011;7095;51.388;6.196;2022-08-04T13:59:32;9.07;;;3.30;;
14040;SDS011;7095;51.388;6.196;2022-08-04T14:02:06;10.80;;;3.83;;
14040;SDS011;7095;51.388;6.196;2022-08-04T14:04:48;11.27;;;4.43;;
14040;SDS011;7095;51.388;6.196;2022-08-04T14:07:24;8.57;;;4.15;;
14040;SDS011;7095;51.388;6.196;2022-08-04T14:09:55;10.95;;;5.13;;
14040;SDS011;7095;51.388;6.196;2022-08-04T14:12:31;11.48;;;4.82;;
14040;SDS011;7095;51.388;6.196;2022-08-04T14:15:28;14.48;;;4.47;;
14040;SDS011;7095;51.388;6.196;2022-08-04T14:18:23;12.20;;;3.85;;
14040;SDS011;7095;51.388;6.196;2022-08-04T14:21:03;13.73;;;4.32;;
14040;SDS011;7095;51.388;6.196;2022-08-04T14:23:38;10.25;;;4.53;;
14040;SDS011;7095;51.388;6.196;2022-08-04T14:26:14;9.70;;;4.18;;
14040;SDS011;7095;51.388;6.196;2022-08-04T14:29:08;14.80;;;6.75;;
14040;SDS011;7095;51.388;6.196;2022-08-04T14:31:59;12.20;;;6.63;;
14040;SDS011;7095;51.388;6.196;2022-08-04T14:34:37;10.77;;;6.93;;
14040;SDS011;7095;51.388;6.196;2022-08-04T14:37:08;12.48;;;6.93;;
14040;SDS011;7095;51.388;6.196;2022-08-04T14:39:44;14.80;;;7.65;;
14040;SDS011;7095;51.388;6.196;2022-08-04T14:42:38;13.45;;;7.25;;
14040;SDS011;7095;51.388;6.196;2022-08-04T14:45:10;17.00;;;8.00;;
14040;SDS011;7095;51.388;6.196;2022-08-04T14:47:43;20.35;;;7.43;;
14040;SDS011;7095;51.388;6.196;2022-08-04T14:50:19;16.65;;;7.38;;
14040;SDS011;7095;51.388;6.196;2022-08-04T14:53:03;13.95;;;6.45;;
14040;SDS011;7095;51.388;6.196;2022-08-04T14:55:34;9.52;;;5.60;;
14040;SDS011;7095;51.388;6.196;2022-08-04T14:58:03;12.98;;;6.47;;
14040;SDS011;7095;51.388;6.196;2022-08-04T15:00:55;12.13;;;6.32;;
14040;SDS011;7095;51.388;6.196;2022-08-04T15:03:25;11.68;;;6.65;;
14040;SDS011;7095;51.388;6.196;2022-08-04T15:05:57;13.15;;;7.50;;
14040;SDS011;7095;51.388;6.196;2022-08-04T15:08:38;10.75;;;6.00;;
14040;SDS011;7095;51.388;6.196;2022-08-04T15:11:13;10.05;;;5.78;;
14040;SDS011;7095;51.388;6.196;2022-08-04T15:13:49;14.50;;;5.80;;
14040;SDS011;7095;51.388;6.196;2022-08-04T15:16:20;10.32;;;5.25;;
14040;SDS011;7095;51.388;6.196;2022-08-04T15:18:50;8.23;;;3.97;;
14040;SDS011;7095;51.388;6.196;2022-08-04T15:21:23;14.73;;;4.00;;
14040;SDS011;7095;51.388;6.196;2022-08-04T15:23:54;9.80;;;4.82;;
14040;SDS011;7095;51.388;6.196;2022-08-04T15:26:26;9.00;;;4.35;;
14040;SDS011;7095;51.388;6.196;2022-08-04T15:29:01;7.90;;;4.07;;
14040;SDS011;7095;51.388;6.196;2022-08-04T15:31:43;10.60;;;3.60;;
14040;SDS011;7095;51.388;6.196;2022-08-04T15:34:43;10.80;;;3.88;;
14040;SDS011;7095;51.388;6.196;2022-08-04T15:37:15;10.95;;;4.43;;
14040;SDS011;7095;51.388;6.196;2022-08-04T15:39:50;8.65;;;4.43;;
14040;SDS011;7095;51.388;6.196;2022-08-04T15:42:29;9.75;;;4.13;;
14040;SDS011;7095;51.388;6.196;2022-08-04T15:45:03;7.90;;;4.35;;
14040;SDS011;7095;51.388;6.196;2022-08-04T15:47:48;10.80;;;4.45;;
14040;SDS011;7095;51.388;6.196;2022-08-04T15:50:59;7.05;;;3.67;;
14040;SDS011;7095;51.388;6.196;2022-08-04T15:56:57;12.32;;;4.93;;
14040;SDS011;7095;51.388;6.196;2022-08-04T16:02:38;10.23;;;5.43;;
14040;SDS011;7095;51.388;6.196;2022-08-04T16:05:30;8.65;;;4.43;;
14040;SDS011;7095;51.388;6.196;2022-08-04T16:08:11;6.85;;;4.18;;
14040;SDS011;7095;51.388;6.196;2022-08-04T16:10:47;11.45;;;5.05;;
14040;SDS011;7095;51.388;6.196;2022-08-04T16:13:18;10.18;;;4.90;;
14040;SDS011;7095;51.388;6.196;2022-08-04T16:15:52;8.13;;;4.03;;
14040;SDS011;7095;51.388;6.196;2022-08-04T16:18:39;7.97;;;4.75;;
14040;SDS011;7095;51.388;6.196;2022-08-04T16:21:18;9.77;;;4.53;;
14040;SDS011;7095;51.388;6.196;2022-08-04T16:23:55;11.27;;;4.32;;
14040;SDS011;7095;51.388;6.196;2022-08-04T16:26:46;13.30;;;3.97;;
14040;SDS011;7095;51.388;6.196;2022-08-04T16:32:13;8.05;;;3.80;;
14040;SDS011;7095;51.388;6.196;2022-08-04T16:34:45;12.50;;;4.00;;
14040;SDS011;7095;51.388;6.196;2022-08-04T16:37:33;12.13;;;3.25;;
14040;SDS011;7095;51.388;6.196;2022-08-04T16:40:23;8.85;;;3.75;;
14040;SDS011;7095;51.388;6.196;2022-08-04T16:43:02;9.55;;;3.95;;
14040;SDS011;7095;51.388;6.196;2022-08-04T16:45:40;6.57;;;2.88;;
14040;SDS011;7095;51.388;6.196;2022-08-04T16:48:11;9.20;;;2.97;;
14040;SDS011;7095;51.388;6.196;2022-08-04T16:50:48;7.65;;;2.70;;
14040;SDS011;7095;51.388;6.196;2022-08-04T16:53:24;6.88;;;3.25;;
14040;SDS011;7095;51.388;6.196;2022-08-04T16:56:14;5.43;;;2.50;;